createdAt,value
2018-09-22T00:00:51.369Z,50.40
2018-09-22T00:01:51.331Z,50.40
2018-09-22T00:02:51.328Z,50.40
2018-09-22T00:03:51.338Z,50.30
2018-09-22T00:04:51.301Z,50.40
2018-09-22T00:05:51.311Z,50.79
2018-09-22T00:06:51.293Z,50.90
2018-09-22T00:07:51.268Z,50.30
2018-09-22T00:08:51.256Z,50.20
2018-09-22T00:09:51.245Z,50.20
2018-09-22T00:10:51.258Z,50.32
2018-09-22T00:11:51.224Z,50.40
2018-09-22T00:12:51.232Z,50.30
2018-09-22T00:13:51.207Z,50.30
2018-09-22T00:14:51.185Z,50.30
2018-09-22T00:15:51.203Z,50.99
2018-09-22T00:16:51.201Z,50.99
2018-09-22T00:17:51.159Z,50.30
2018-09-22T00:18:51.142Z,51.02
2018-09-22T00:19:51.133Z,50.30
2018-09-22T00:20:51.185Z,50.79
2018-09-22T00:21:51.142Z,50.22
2018-09-22T00:22:51.099Z,50.30
2018-09-22T00:23:51.088Z,50.32
2018-09-22T00:24:51.106Z,50.22
2018-09-22T00:25:51.086Z,50.20
2018-09-22T00:26:51.053Z,50.52
2018-09-22T00:27:51.044Z,50.22
2018-09-22T00:28:51.035Z,50.42
2018-09-22T00:29:51.023Z,50.30
2018-09-22T00:30:51.068Z,50.22
2018-09-22T00:31:51.021Z,50.99
2018-09-22T00:32:50.989Z,51.02
2018-09-22T00:33:50.975Z,50.99
2018-09-22T00:34:50.964Z,51.02
2018-09-22T00:35:50.997Z,51.02
2018-09-22T00:36:50.968Z,50.20
2018-09-22T00:37:50.936Z,50.32
2018-09-22T00:38:50.919Z,50.92
2018-09-22T00:39:50.912Z,50.12
2018-09-22T00:40:50.933Z,50.92
2018-09-22T00:41:50.908Z,50.90
2018-09-22T00:42:50.882Z,51.02
2018-09-22T00:43:50.863Z,51.20
2018-09-22T00:44:50.860Z,51.12
2018-09-22T00:45:50.854Z,50.90
2018-09-22T00:46:50.853Z,51.02
2018-09-22T00:47:50.819Z,50.72
2018-09-22T00:48:50.811Z,51.22
2018-09-22T00:49:50.803Z,50.99
2018-09-22T00:50:50.789Z,50.42
2018-09-22T00:51:50.796Z,51.02
2018-09-22T00:52:50.766Z,50.99
2018-09-22T00:53:50.757Z,51.12
2018-09-22T00:54:50.742Z,50.32
2018-09-22T00:55:50.727Z,50.30
2018-09-22T00:56:50.743Z,50.42
2018-09-22T00:57:50.712Z,51.02
2018-09-22T00:58:50.724Z,51.02
2018-09-22T00:59:50.689Z,50.22
2018-09-22T01:00:50.677Z,51.02
2018-09-22T01:01:50.687Z,51.02
2018-09-22T01:02:50.654Z,51.02
2018-09-22T01:03:50.661Z,50.32
2018-09-22T01:04:50.631Z,50.22
2018-09-22T01:05:50.621Z,51.02
2018-09-22T01:06:50.656Z,51.02
2018-09-22T01:07:50.600Z,50.82
2018-09-22T01:08:50.588Z,51.12
2018-09-22T01:09:50.577Z,50.72
2018-09-22T01:10:50.567Z,51.02
2018-09-22T01:11:50.572Z,50.72
2018-09-22T01:12:50.544Z,50.52
2018-09-22T01:13:50.531Z,51.02
2018-09-22T01:14:50.518Z,50.22
2018-09-22T01:15:50.568Z,50.92
2018-09-22T01:16:50.523Z,50.72
2018-09-22T01:17:50.489Z,50.72
2018-09-22T01:18:50.474Z,50.82
2018-09-22T01:19:50.492Z,50.82
2018-09-22T01:20:50.452Z,50.62
2018-09-22T01:21:50.474Z,50.72
2018-09-22T01:22:50.435Z,50.82
2018-09-22T01:23:50.415Z,50.72
2018-09-22T01:24:50.411Z,51.22
2018-09-22T01:25:50.395Z,51.02
2018-09-22T01:26:50.410Z,50.02
2018-09-22T01:27:50.372Z,51.02
2018-09-22T01:28:50.384Z,50.72
2018-09-22T01:29:50.351Z,51.02
2018-09-22T01:30:50.341Z,50.92
2018-09-22T01:31:50.376Z,50.92
2018-09-22T01:32:50.322Z,51.02
2018-09-22T01:33:50.306Z,50.62
2018-09-22T01:34:50.297Z,50.42
2018-09-22T01:35:50.293Z,50.72
2018-09-22T01:36:50.296Z,50.62
2018-09-22T01:37:50.264Z,50.72
2018-09-22T01:38:50.252Z,51.02
2018-09-22T01:39:50.264Z,50.42
2018-09-22T01:40:50.228Z,50.02
2018-09-22T01:41:50.241Z,50.82
2018-09-22T01:42:50.208Z,50.52
2018-09-22T01:43:50.198Z,50.52
2018-09-22T01:44:50.185Z,50.62
2018-09-22T01:45:50.176Z,50.32
2018-09-22T01:46:50.191Z,50.52
2018-09-22T01:47:50.182Z,50.52
2018-09-22T01:48:50.142Z,50.32
2018-09-22T01:49:50.128Z,50.22
2018-09-22T01:50:50.118Z,50.72
2018-09-22T01:51:50.137Z,50.52
2018-09-22T01:52:50.097Z,50.32
2018-09-22T01:53:50.088Z,51.12
2018-09-22T01:54:50.073Z,50.52
2018-09-22T01:55:50.065Z,51.12
2018-09-22T01:56:50.075Z,51.32
2018-09-22T01:57:50.040Z,50.92
2018-09-22T01:58:50.031Z,50.72
2018-09-22T01:59:50.019Z,51.02
2018-09-22T02:00:50.010Z,50.72
2018-09-22T02:01:50.021Z,51.52
2018-09-22T02:02:49.985Z,50.72
2018-09-22T02:03:49.975Z,50.72
2018-09-22T02:04:50.002Z,50.82
2018-09-22T02:05:49.952Z,51.32
2018-09-22T02:06:49.963Z,50.92
2018-09-22T02:07:49.929Z,51.02
2018-09-22T02:08:49.919Z,50.92
2018-09-22T02:09:49.910Z,50.82
2018-09-22T02:10:49.894Z,50.52
2018-09-22T02:11:49.904Z,51.02
2018-09-22T02:12:49.879Z,50.82
2018-09-22T02:13:49.864Z,50.92
2018-09-22T02:14:49.883Z,50.52
2018-09-22T02:15:49.840Z,50.95
2018-09-22T02:16:49.852Z,50.52
2018-09-22T02:17:49.839Z,50.72
2018-09-22T02:18:49.805Z,50.92
2018-09-22T02:19:49.818Z,51.02
2018-09-22T02:20:49.781Z,50.42
2018-09-22T02:21:49.772Z,50.42
2018-09-22T02:22:49.784Z,50.72
2018-09-22T02:23:49.755Z,50.82
2018-09-22T02:24:49.740Z,50.72
2018-09-22T02:25:49.726Z,50.42
2018-09-22T02:26:49.717Z,50.42
2018-09-22T02:27:49.730Z,50.82
2018-09-22T02:28:49.720Z,50.82
2018-09-22T02:29:49.683Z,50.52
2018-09-22T02:30:49.672Z,50.52
2018-09-22T02:31:49.662Z,50.82
2018-09-22T02:32:49.673Z,50.32
2018-09-22T02:33:49.636Z,50.72
2018-09-22T02:34:49.629Z,50.82
2018-09-22T02:35:49.616Z,50.82
2018-09-22T02:36:49.609Z,50.72
2018-09-22T02:37:49.612Z,50.42
2018-09-22T02:38:49.593Z,50.72
2018-09-22T02:39:49.589Z,51.22
2018-09-22T02:40:49.562Z,50.52
2018-09-22T02:41:49.551Z,50.82
2018-09-22T02:42:49.567Z,50.52
2018-09-22T02:43:49.525Z,50.72
2018-09-22T02:44:49.517Z,51.22
2018-09-22T02:45:49.505Z,50.82
2018-09-22T02:46:49.494Z,51.02
2018-09-22T02:47:49.507Z,50.92
2018-09-22T02:48:49.519Z,50.82
2018-09-22T02:49:49.460Z,50.92
2018-09-22T02:50:49.452Z,50.62
2018-09-22T02:51:49.461Z,50.82
2018-09-22T02:52:49.446Z,51.02
2018-09-22T02:53:49.413Z,50.92
2018-09-22T02:54:49.406Z,50.95
2018-09-22T02:55:49.392Z,50.72
2018-09-22T02:56:49.382Z,50.62
2018-09-22T02:57:49.391Z,50.72
2018-09-22T02:58:49.365Z,50.74
2018-09-22T02:59:49.351Z,50.84
2018-09-22T03:00:49.337Z,50.74
2018-09-22T03:01:49.349Z,50.74
2018-09-22T03:02:49.336Z,50.74
2018-09-22T03:03:49.303Z,51.15
2018-09-22T03:04:49.290Z,51.15
2018-09-22T03:05:49.280Z,51.02
2018-09-22T03:06:49.301Z,50.72
2018-09-22T03:07:49.278Z,50.92
2018-09-22T03:08:49.355Z,50.54
2018-09-22T03:09:49.236Z,51.02
2018-09-22T03:10:49.227Z,50.74
2018-09-22T03:11:49.214Z,50.95
2018-09-22T03:12:49.221Z,50.95
2018-09-22T03:13:49.196Z,50.95
2018-09-22T03:14:49.203Z,50.95
2018-09-22T03:15:49.169Z,51.25
2018-09-22T03:16:49.158Z,51.02
2018-09-22T03:17:49.206Z,51.02
2018-09-22T03:18:49.140Z,51.12
2018-09-22T03:19:49.125Z,51.15
2018-09-22T03:20:49.117Z,50.92
2018-09-22T03:21:49.105Z,50.95
2018-09-22T03:22:49.116Z,51.12
2018-09-22T03:23:49.097Z,50.95
2018-09-22T03:24:49.067Z,51.02
2018-09-22T03:25:49.059Z,50.95
2018-09-22T03:26:49.050Z,51.15
2018-09-22T03:27:49.057Z,51.04
2018-09-22T03:28:49.027Z,51.04
2018-09-22T03:29:49.014Z,51.15
2018-09-22T03:30:49.011Z,51.12
2018-09-22T03:31:48.994Z,51.04
2018-09-22T03:32:49.020Z,51.04
2018-09-22T03:33:48.971Z,50.95
2018-09-22T03:34:48.957Z,51.15
2018-09-22T03:35:48.946Z,50.95
2018-09-22T03:36:48.936Z,51.15
2018-09-22T03:37:48.949Z,51.04
2018-09-22T03:38:48.914Z,51.15
2018-09-22T03:39:48.900Z,51.04
2018-09-22T03:40:48.889Z,50.74
2018-09-22T03:41:48.902Z,50.95
2018-09-22T03:42:48.892Z,51.04
2018-09-22T03:43:48.863Z,50.95
2018-09-22T03:44:48.848Z,50.95
2018-09-22T03:45:48.835Z,50.95
2018-09-22T03:46:48.820Z,50.95
2018-09-22T03:47:48.842Z,50.95
2018-09-22T03:48:48.801Z,51.04
2018-09-22T03:49:48.793Z,51.32
2018-09-22T03:50:48.780Z,51.25
2018-09-22T03:51:48.769Z,51.04
2018-09-22T03:52:48.785Z,50.95
2018-09-22T03:53:48.743Z,50.95
2018-09-22T03:54:48.742Z,51.52
2018-09-22T03:55:48.739Z,51.04
2018-09-22T03:56:48.713Z,50.95
2018-09-22T03:57:48.732Z,51.34
2018-09-22T03:58:48.692Z,51.34
2018-09-22T03:59:48.680Z,51.32
2018-09-22T04:00:48.672Z,51.34
2018-09-22T04:01:48.659Z,51.04
2018-09-22T04:02:48.643Z,51.34
2018-09-22T04:03:48.658Z,51.15
2018-09-22T04:04:48.621Z,51.34
2018-09-22T04:05:48.615Z,51.25
2018-09-22T04:06:48.601Z,51.34
2018-09-22T04:07:48.592Z,51.15
2018-09-22T04:08:48.600Z,51.45
2018-09-22T04:09:48.566Z,51.45
2018-09-22T04:10:48.553Z,51.12
2018-09-22T04:11:48.580Z,51.34
2018-09-22T04:12:48.529Z,51.54
2018-09-22T04:13:48.544Z,51.34
2018-09-22T04:14:48.514Z,51.54
2018-09-22T04:15:48.503Z,51.15
2018-09-22T04:16:48.486Z,51.25
2018-09-22T04:17:48.479Z,51.34
2018-09-22T04:18:48.489Z,51.25
2018-09-22T04:19:48.456Z,51.34
2018-09-22T04:20:48.445Z,51.34
2018-09-22T04:21:48.435Z,51.25
2018-09-22T04:22:48.422Z,51.34
2018-09-22T04:23:48.430Z,51.45
2018-09-22T04:24:48.398Z,51.34
2018-09-22T04:25:48.414Z,51.34
2018-09-22T04:26:48.375Z,51.45
2018-09-22T04:27:48.372Z,51.45
2018-09-22T04:28:48.377Z,51.25
2018-09-22T04:29:48.339Z,51.45
2018-09-22T04:30:48.329Z,51.45
2018-09-22T04:31:48.335Z,51.45
2018-09-22T04:32:48.311Z,51.54
2018-09-22T04:33:48.320Z,51.25
2018-09-22T04:34:48.303Z,51.54
2018-09-22T04:35:48.275Z,51.64
2018-09-22T04:36:48.268Z,51.64
2018-09-22T04:37:48.259Z,51.64
2018-09-22T04:38:48.264Z,51.45
2018-09-22T04:39:48.234Z,51.04
2018-09-22T04:40:48.218Z,51.54
2018-09-22T04:41:48.239Z,51.54
2018-09-22T04:42:48.200Z,51.04
2018-09-22T04:43:48.209Z,51.04
2018-09-22T04:44:48.177Z,51.64
2018-09-22T04:45:48.165Z,51.64
2018-09-22T04:46:48.154Z,51.04
2018-09-22T04:47:48.165Z,51.64
2018-09-22T04:48:48.154Z,51.04
2018-09-22T04:49:48.117Z,51.25
2018-09-22T04:50:48.117Z,51.04
2018-09-22T04:51:48.097Z,51.04
2018-09-22T04:52:48.085Z,51.25
2018-09-22T04:53:48.151Z,51.34
2018-09-22T04:54:48.060Z,51.25
2018-09-22T04:55:48.052Z,51.25
2018-09-22T04:56:48.046Z,51.75
2018-09-22T04:57:48.030Z,51.25
2018-09-22T04:58:48.038Z,51.34
2018-09-22T04:59:48.005Z,51.34
2018-09-22T05:00:47.997Z,51.34
2018-09-22T05:01:47.988Z,51.45
2018-09-22T05:02:47.971Z,51.34
2018-09-22T05:03:48.008Z,51.45
2018-09-22T05:04:47.952Z,51.34
2018-09-22T05:05:47.941Z,51.45
2018-09-22T05:06:47.927Z,51.54
2018-09-22T05:07:47.917Z,51.34
2018-09-22T05:08:47.932Z,51.34
2018-09-22T05:09:47.896Z,51.64
2018-09-22T05:10:47.916Z,51.54
2018-09-22T05:11:47.874Z,51.34
2018-09-22T05:12:47.863Z,51.64
2018-09-22T05:13:47.874Z,51.45
2018-09-22T05:14:47.838Z,51.64
2018-09-22T05:15:47.827Z,51.54
2018-09-22T05:16:47.816Z,51.45
2018-09-22T05:17:47.808Z,51.54
2018-09-22T05:18:47.814Z,51.84
2018-09-22T05:19:47.810Z,51.75
2018-09-22T05:20:47.775Z,51.54
2018-09-22T05:21:47.762Z,51.54
2018-09-22T05:22:47.751Z,51.64
2018-09-22T05:23:47.760Z,51.75
2018-09-22T05:24:47.876Z,51.45
2018-09-22T05:25:47.716Z,51.25
2018-09-22T05:26:47.707Z,51.64
2018-09-22T05:27:47.697Z,51.84
2018-09-22T05:28:47.707Z,51.84
2018-09-22T05:29:47.673Z,51.45
2018-09-22T05:30:47.661Z,51.64
2018-09-22T05:31:47.676Z,51.64
2018-09-22T05:32:47.638Z,51.94
2018-09-22T05:33:47.649Z,51.94
2018-09-22T05:34:47.616Z,51.94
2018-09-22T05:35:47.608Z,51.75
2018-09-22T05:36:47.598Z,51.94
2018-09-22T05:37:47.591Z,51.25
2018-09-22T05:38:47.596Z,51.75
2018-09-22T05:39:47.565Z,51.25
2018-09-22T05:40:47.551Z,51.94
2018-09-22T05:41:47.577Z,51.64
2018-09-22T05:42:47.527Z,51.64
2018-09-22T05:43:47.538Z,51.94
2018-09-22T05:44:47.525Z,51.57
2018-09-22T05:45:47.518Z,51.64
2018-09-22T05:46:47.490Z,51.45
2018-09-22T05:47:47.472Z,51.67
2018-09-22T05:48:47.463Z,51.64
2018-09-22T05:49:47.469Z,51.77
2018-09-22T05:50:47.443Z,51.45
2018-09-22T05:51:47.427Z,51.45
2018-09-22T05:52:47.414Z,51.64
2018-09-22T05:53:47.407Z,51.75
2018-09-22T05:54:47.438Z,51.54
2018-09-22T05:55:47.382Z,51.45
2018-09-22T05:56:47.375Z,51.64
2018-09-22T05:57:47.358Z,51.57
2018-09-22T05:58:47.346Z,51.64
2018-09-22T05:59:47.358Z,51.47
2018-09-22T06:00:47.323Z,51.75
2018-09-22T06:01:47.315Z,51.75
2018-09-22T06:02:47.309Z,51.25
2018-09-22T06:03:47.473Z,51.67
2018-09-22T06:04:47.304Z,51.54
2018-09-22T06:05:47.269Z,51.75
2018-09-22T06:06:47.287Z,51.64
2018-09-22T06:07:47.245Z,51.77
2018-09-22T06:08:47.238Z,51.54
2018-09-22T06:09:47.246Z,51.75
2018-09-22T06:10:47.215Z,51.67
2018-09-22T06:11:47.202Z,51.77
2018-09-22T06:12:47.194Z,51.57
2018-09-22T06:13:47.182Z,51.67
2018-09-22T06:14:47.193Z,51.75
2018-09-22T06:15:47.179Z,51.77
2018-09-22T06:16:47.145Z,51.75
2018-09-22T06:17:47.139Z,51.84
2018-09-22T06:18:47.126Z,51.87
2018-09-22T06:19:47.135Z,51.57
2018-09-22T06:20:47.102Z,51.64
2018-09-22T06:21:47.117Z,51.77
2018-09-22T06:22:47.082Z,51.97
2018-09-22T06:23:47.070Z,51.57
2018-09-22T06:24:47.083Z,51.77
2018-09-22T06:25:47.046Z,51.57
2018-09-22T06:26:47.039Z,51.45
2018-09-22T06:27:47.022Z,51.87
2018-09-22T06:28:47.114Z,51.77
2018-09-22T06:29:47.023Z,51.77
2018-09-22T06:30:46.994Z,51.75
2018-09-22T06:31:46.978Z,51.97
2018-09-22T06:32:46.967Z,51.87
2018-09-22T06:33:46.985Z,51.84
2018-09-22T06:34:46.969Z,51.97
2018-09-22T06:35:46.935Z,51.97
2018-09-22T06:36:46.923Z,51.75
2018-09-22T06:37:46.925Z,51.45
2018-09-22T06:38:46.909Z,51.77
2018-09-22T06:39:46.915Z,51.97
2018-09-22T06:40:46.879Z,51.87
2018-09-22T06:41:46.870Z,51.87
2018-09-22T06:42:46.858Z,51.57
2018-09-22T06:43:46.842Z,51.84
2018-09-22T06:44:46.858Z,51.87
2018-09-22T06:45:46.842Z,51.75
2018-09-22T06:46:46.812Z,51.64
2018-09-22T06:47:46.801Z,51.47
2018-09-22T06:48:46.789Z,51.57
2018-09-22T06:49:46.832Z,51.67
2018-09-22T06:50:46.765Z,51.75
2018-09-22T06:51:46.758Z,51.57
2018-09-22T06:52:46.778Z,51.54
2018-09-22T06:53:46.733Z,51.64
2018-09-22T06:54:46.754Z,51.57
2018-09-22T06:55:46.716Z,51.77
2018-09-22T06:56:46.700Z,51.67
2018-09-22T06:57:46.691Z,51.64
2018-09-22T06:58:46.675Z,51.84
2018-09-22T06:59:46.720Z,51.67
2018-09-22T07:00:46.656Z,51.84
2018-09-22T07:01:46.643Z,51.57
2018-09-22T07:02:46.633Z,51.77
2018-09-22T07:03:46.621Z,51.67
2018-09-22T07:04:46.635Z,51.75
2018-09-22T07:05:46.599Z,51.25
2018-09-22T07:06:46.608Z,51.64
2018-09-22T07:07:46.578Z,51.67
2018-09-22T07:08:46.566Z,51.64
2018-09-22T07:09:46.576Z,51.25
2018-09-22T07:10:46.548Z,51.75
2018-09-22T07:11:46.536Z,51.75
2018-09-22T07:12:46.524Z,51.77
2018-09-22T07:13:46.523Z,51.84
2018-09-22T07:14:46.520Z,51.75
2018-09-22T07:15:46.490Z,51.67
2018-09-22T07:16:46.484Z,51.47
2018-09-22T07:17:46.468Z,51.75
2018-09-22T07:18:46.475Z,51.64
2018-09-22T07:19:46.470Z,51.47
2018-09-22T07:20:46.434Z,51.64
2018-09-22T07:21:46.427Z,51.75
2018-09-22T07:22:46.411Z,51.67
2018-09-22T07:23:46.400Z,51.45
2018-09-22T07:24:46.413Z,51.97
2018-09-22T07:25:46.381Z,51.64
2018-09-22T07:26:46.393Z,51.64
2018-09-22T07:27:46.355Z,51.57
2018-09-22T07:28:46.366Z,51.77
2018-09-22T07:29:46.334Z,51.75
2018-09-22T07:30:46.379Z,51.67
2018-09-22T07:31:46.312Z,51.67
2018-09-22T07:32:46.304Z,51.77
2018-09-22T07:33:46.289Z,51.27
2018-09-22T07:34:46.276Z,51.27
2018-09-22T07:35:46.288Z,52.17
2018-09-22T07:36:46.258Z,51.77
2018-09-22T07:37:46.244Z,51.47
2018-09-22T07:38:46.234Z,51.64
2018-09-22T07:39:46.221Z,51.67
2018-09-22T07:40:46.235Z,51.75
2018-09-22T07:41:46.201Z,51.67
2018-09-22T07:42:46.190Z,51.67
2018-09-22T07:43:46.205Z,51.57
2018-09-22T07:44:46.163Z,51.67
2018-09-22T07:45:46.211Z,52.04
2018-09-22T07:46:46.146Z,51.77
2018-09-22T07:47:46.131Z,51.07
2018-09-22T07:48:46.124Z,51.47
2018-09-22T07:49:46.109Z,51.67
2018-09-22T07:50:46.123Z,51.97
2018-09-22T07:51:46.089Z,51.97
2018-09-22T07:52:46.077Z,51.47
2018-09-22T07:53:46.069Z,51.67
2018-09-22T07:54:46.052Z,51.97
2018-09-22T07:55:46.065Z,51.75
2018-09-22T07:56:46.049Z,51.67
2018-09-22T07:57:46.034Z,51.94
2018-09-22T07:58:46.011Z,51.54
2018-09-22T07:59:45.999Z,51.97
2018-09-22T08:00:46.028Z,51.97
2018-09-22T08:01:45.987Z,51.94
2018-09-22T08:02:45.990Z,51.87
2018-09-22T08:03:45.955Z,51.34
2018-09-22T08:04:45.948Z,51.27
2018-09-22T08:05:45.952Z,51.54
2018-09-22T08:06:45.920Z,51.97
2018-09-22T08:07:45.906Z,51.57
2018-09-22T08:08:45.903Z,51.57
2018-09-22T08:09:45.914Z,51.64
2018-09-22T08:10:45.898Z,51.37
2018-09-22T08:11:45.900Z,51.47
2018-09-22T08:12:45.853Z,51.84
2018-09-22T08:13:45.843Z,51.45
2018-09-22T08:14:45.832Z,51.77
2018-09-22T08:15:45.854Z,51.87
2018-09-22T08:16:45.809Z,51.54
2018-09-22T08:17:45.800Z,51.34
2018-09-22T08:18:45.785Z,51.25
2018-09-22T08:19:45.779Z,51.47
2018-09-22T08:20:45.789Z,51.27
2018-09-22T08:21:45.775Z,51.17
2018-09-22T08:22:45.743Z,51.34
2018-09-22T08:23:45.729Z,51.34
2018-09-22T08:24:45.720Z,51.34
2018-09-22T08:25:45.747Z,51.27
2018-09-22T08:26:45.700Z,51.07
2018-09-22T08:27:45.688Z,51.37
2018-09-22T08:28:45.673Z,51.34
2018-09-22T08:29:45.665Z,51.04
2018-09-22T08:30:45.677Z,51.54
2018-09-22T08:31:45.640Z,51.25
2018-09-22T08:32:45.658Z,51.04
2018-09-22T08:33:45.621Z,51.07
2018-09-22T08:34:45.608Z,51.64
2018-09-22T08:35:45.619Z,51.64
2018-09-22T08:36:45.761Z,51.45
2018-09-22T08:37:45.575Z,51.47
2018-09-22T08:38:45.588Z,51.34
2018-09-22T08:39:45.556Z,51.34
2018-09-22T08:40:45.568Z,51.34
2018-09-22T08:41:45.528Z,51.37
2018-09-22T08:42:45.524Z,51.27
2018-09-22T08:43:45.513Z,51.07
2018-09-22T08:44:45.547Z,51.64
2018-09-22T08:45:45.509Z,51.45
2018-09-22T08:46:45.500Z,51.04
2018-09-22T08:47:45.464Z,51.15
2018-09-22T08:48:45.451Z,51.47
2018-09-22T08:49:45.547Z,51.45
2018-09-22T08:50:45.449Z,51.25
2018-09-22T08:51:45.419Z,51.64
2018-09-22T08:52:45.412Z,51.34
2018-09-22T08:53:45.399Z,51.64
2018-09-22T08:54:45.384Z,51.25
2018-09-22T08:55:45.436Z,51.54
2018-09-22T08:56:45.362Z,51.64
2018-09-22T08:57:45.366Z,51.45
2018-09-22T08:58:45.343Z,51.15
2018-09-22T08:59:45.327Z,51.45
2018-09-22T09:00:45.340Z,51.04
2018-09-22T09:01:45.309Z,50.95
2018-09-22T09:02:45.297Z,51.34
2018-09-22T09:03:45.285Z,51.34
2018-09-22T09:04:45.294Z,51.54
2018-09-22T09:05:45.289Z,51.07
2018-09-22T09:06:45.249Z,51.45
2018-09-22T09:07:45.261Z,50.95
2018-09-22T09:08:45.229Z,51.15
2018-09-22T09:09:45.214Z,51.34
2018-09-22T09:10:45.228Z,51.45
2018-09-22T09:11:45.196Z,51.04
2018-09-22T09:12:45.184Z,51.34
2018-09-22T09:13:45.210Z,51.34
2018-09-22T09:14:45.261Z,51.54
2018-09-22T09:15:45.169Z,51.34
2018-09-22T09:16:45.159Z,51.34
2018-09-22T09:17:45.128Z,51.34
2018-09-22T09:18:45.115Z,50.95
2018-09-22T09:19:45.105Z,51.04
2018-09-22T09:20:45.092Z,51.34
2018-09-22T09:21:45.128Z,51.34
2018-09-22T09:22:45.071Z,50.95
2018-09-22T09:23:45.063Z,51.34
2018-09-22T09:24:45.051Z,50.95
2018-09-22T09:25:45.037Z,51.04
2018-09-22T09:26:45.048Z,51.34
2018-09-22T09:27:45.021Z,50.95
2018-09-22T09:28:45.025Z,50.95
2018-09-22T09:29:44.995Z,51.34
2018-09-22T09:30:44.990Z,51.04
2018-09-22T09:31:44.997Z,51.04
2018-09-22T09:32:44.963Z,50.95
2018-09-22T09:33:44.949Z,50.95
2018-09-22T09:34:44.937Z,51.34
2018-09-22T09:35:44.925Z,50.95
2018-09-22T09:36:44.969Z,51.25
2018-09-22T09:37:44.909Z,50.95
2018-09-22T09:38:44.899Z,51.04
2018-09-22T09:39:44.883Z,50.84
2018-09-22T09:40:44.870Z,51.04
2018-09-22T09:41:44.881Z,50.95
2018-09-22T09:42:44.849Z,50.95
2018-09-22T09:43:44.857Z,51.15
2018-09-22T09:44:44.858Z,51.15
2018-09-22T09:45:44.812Z,50.74
2018-09-22T09:46:44.826Z,50.74
2018-09-22T09:47:44.811Z,51.15
2018-09-22T09:48:44.783Z,51.04
2018-09-22T09:49:44.772Z,50.95
2018-09-22T09:50:44.781Z,50.74
2018-09-22T09:51:44.770Z,51.04
2018-09-22T09:52:44.738Z,51.04
2018-09-22T09:53:44.723Z,51.04
2018-09-22T09:54:44.772Z,50.95
2018-09-22T09:55:44.703Z,51.15
2018-09-22T09:56:44.713Z,51.04
2018-09-22T09:57:44.680Z,50.74
2018-09-22T09:58:44.670Z,50.84
2018-09-22T09:59:44.659Z,51.15
2018-09-22T10:00:44.650Z,50.54
2018-09-22T10:01:44.657Z,51.25
2018-09-22T10:02:44.640Z,50.65
2018-09-22T10:03:44.611Z,51.04
2018-09-22T10:04:44.606Z,50.74
2018-09-22T10:05:44.593Z,50.84
2018-09-22T10:06:44.607Z,50.54
2018-09-22T10:07:44.567Z,50.74
2018-09-22T10:08:44.557Z,50.74
2018-09-22T10:09:44.547Z,51.15
2018-09-22T10:10:44.600Z,51.04
2018-09-22T10:11:44.569Z,50.74
2018-09-22T10:12:44.513Z,51.25
2018-09-22T10:13:44.509Z,50.84
2018-09-22T10:14:44.493Z,50.45
2018-09-22T10:15:44.482Z,50.65
2018-09-22T10:16:44.494Z,51.04
2018-09-22T10:17:44.459Z,51.25
2018-09-22T10:18:44.444Z,51.25
2018-09-22T10:19:44.434Z,50.74
2018-09-22T10:20:44.423Z,50.74
2018-09-22T10:21:44.452Z,50.54
2018-09-22T10:22:44.399Z,50.84
2018-09-22T10:23:44.392Z,50.54
2018-09-22T10:24:44.380Z,50.84
2018-09-22T10:25:44.367Z,50.84
2018-09-22T10:26:44.380Z,50.74
2018-09-22T10:27:44.345Z,50.45
2018-09-22T10:28:44.346Z,50.35
2018-09-22T10:29:44.342Z,50.45
2018-09-22T10:30:44.315Z,50.45
2018-09-22T10:31:44.323Z,50.74
2018-09-22T10:32:44.318Z,50.74
2018-09-22T10:33:44.278Z,50.45
2018-09-22T10:34:44.268Z,50.65
2018-09-22T10:35:44.257Z,50.35
2018-09-22T10:36:44.271Z,50.74
2018-09-22T10:37:44.234Z,50.35
2018-09-22T10:38:44.222Z,50.77
2018-09-22T10:39:44.234Z,50.35
2018-09-22T10:40:44.208Z,50.74
2018-09-22T10:41:44.209Z,50.74
2018-09-22T10:42:44.178Z,50.45
2018-09-22T10:43:44.178Z,50.74
2018-09-22T10:44:44.155Z,50.54
2018-09-22T10:45:44.219Z,50.74
2018-09-22T10:46:44.185Z,50.74
2018-09-22T10:47:44.128Z,50.74
2018-09-22T10:48:44.110Z,50.95
2018-09-22T10:49:44.101Z,50.65
2018-09-22T10:50:44.097Z,50.74
2018-09-22T10:51:44.101Z,50.95
2018-09-22T10:52:44.083Z,50.65
2018-09-22T10:53:44.075Z,50.92
2018-09-22T10:54:44.045Z,50.74
2018-09-22T10:55:44.034Z,51.54
2018-09-22T10:56:44.042Z,51.54
2018-09-22T10:57:44.031Z,50.82
2018-09-22T10:58:44.004Z,51.45
2018-09-22T10:59:43.988Z,50.45
2018-09-22T11:00:43.983Z,51.32
2018-09-22T11:01:43.969Z,51.04
2018-09-22T11:02:43.980Z,51.34
2018-09-22T11:03:43.977Z,51.32
2018-09-22T11:04:43.932Z,50.35
2018-09-22T11:05:43.921Z,51.54
2018-09-22T11:06:43.909Z,50.54
2018-09-22T11:07:43.922Z,51.45
2018-09-22T11:08:43.889Z,51.34
2018-09-22T11:09:43.876Z,51.15
2018-09-22T11:10:43.865Z,51.15
2018-09-22T11:11:43.859Z,50.54
2018-09-22T11:12:43.879Z,50.65
2018-09-22T11:13:43.833Z,50.35
2018-09-22T11:14:43.823Z,50.45
2018-09-22T11:15:43.809Z,50.54
2018-09-22T11:16:43.797Z,50.74
2018-09-22T11:17:43.813Z,50.32
2018-09-22T11:18:43.777Z,50.35
2018-09-22T11:19:43.787Z,50.45
2018-09-22T11:20:43.754Z,50.54
2018-09-22T11:21:43.746Z,50.54
2018-09-22T11:22:43.754Z,50.54
2018-09-22T11:23:43.720Z,50.54
2018-09-22T11:24:43.708Z,50.45
2018-09-22T11:25:43.699Z,50.54
2018-09-22T11:26:43.707Z,50.62
2018-09-22T11:27:43.699Z,50.54
2018-09-22T11:28:43.667Z,50.35
2018-09-22T11:29:43.655Z,50.32
2018-09-22T11:30:43.649Z,50.35
2018-09-22T11:31:43.633Z,50.45
2018-09-22T11:32:43.728Z,50.35
2018-09-22T11:33:43.614Z,50.54
2018-09-22T11:34:43.599Z,50.74
2018-09-22T11:35:43.603Z,50.62
2018-09-22T11:36:43.576Z,50.35
2018-09-22T11:37:43.587Z,50.35
2018-09-22T11:38:43.560Z,50.45
2018-09-22T11:39:43.542Z,50.35
2018-09-22T11:40:43.531Z,51.15
2018-09-22T11:41:43.526Z,50.65
2018-09-22T11:42:43.533Z,50.65
2018-09-22T11:43:43.499Z,51.34
2018-09-22T11:44:43.491Z,51.45
2018-09-22T11:45:43.494Z,50.84
2018-09-22T11:46:43.463Z,51.34
2018-09-22T11:47:43.477Z,50.84
2018-09-22T11:48:43.446Z,51.04
2018-09-22T11:49:43.434Z,50.92
2018-09-22T11:50:43.419Z,50.95
2018-09-22T11:51:43.413Z,51.54
2018-09-22T11:52:43.423Z,50.95
2018-09-22T11:53:43.409Z,50.95
2018-09-22T11:54:43.377Z,50.74
2018-09-22T11:55:43.365Z,50.84
2018-09-22T11:56:43.355Z,50.74
2018-09-22T11:57:43.363Z,50.84
2018-09-22T11:58:43.333Z,50.95
2018-09-22T11:59:43.324Z,50.84
2018-09-22T12:00:43.337Z,50.54
2018-09-22T12:01:43.299Z,50.54
2018-09-22T12:02:43.307Z,50.74
2018-09-22T12:03:43.274Z,50.65
2018-09-22T12:04:43.264Z,50.84
2018-09-22T12:05:43.257Z,50.74
2018-09-22T12:06:43.457Z,50.74
2018-09-22T12:07:43.253Z,50.54
2018-09-22T12:08:43.221Z,50.74
2018-09-22T12:09:43.207Z,50.74
2018-09-22T12:10:43.196Z,50.84
2018-09-22T12:11:43.188Z,50.74
2018-09-22T12:12:43.197Z,50.65
2018-09-22T12:13:43.182Z,50.54
2018-09-22T12:14:43.157Z,50.74
2018-09-22T12:15:43.141Z,50.74
2018-09-22T12:16:43.132Z,50.84
2018-09-22T12:17:43.143Z,50.84
2018-09-22T12:18:43.109Z,50.45
2018-09-22T12:19:43.099Z,50.74
2018-09-22T12:20:43.085Z,50.74
2018-09-22T12:21:43.117Z,50.84
2018-09-22T12:22:43.087Z,50.84
2018-09-22T12:23:43.051Z,50.74
2018-09-22T12:24:43.042Z,50.45
2018-09-22T12:25:43.028Z,50.95
2018-09-22T12:26:43.022Z,50.95
2018-09-22T12:27:43.030Z,50.84
2018-09-22T12:28:42.996Z,50.84
2018-09-22T12:29:43.020Z,50.95
2018-09-22T12:30:42.977Z,50.95
2018-09-22T12:31:42.965Z,50.84
2018-09-22T12:32:42.975Z,50.84
2018-09-22T12:33:42.941Z,50.95
2018-09-22T12:34:42.929Z,50.74
2018-09-22T12:35:42.936Z,50.95
2018-09-22T12:36:42.911Z,50.95
2018-09-22T12:37:42.899Z,51.45
2018-09-22T12:38:42.914Z,51.45
2018-09-22T12:39:42.878Z,50.95
2018-09-22T12:40:42.863Z,50.74
2018-09-22T12:41:42.855Z,51.25
2018-09-22T12:42:42.840Z,50.35
2018-09-22T12:43:42.854Z,50.74
2018-09-22T12:44:42.833Z,50.45
2018-09-22T12:45:42.806Z,50.65
2018-09-22T12:46:42.796Z,50.35
2018-09-22T12:47:42.785Z,50.54
2018-09-22T12:48:42.799Z,50.54
2018-09-22T12:49:42.764Z,50.84
2018-09-22T12:50:42.750Z,50.35
2018-09-22T12:51:42.767Z,50.54
2018-09-22T12:52:42.731Z,50.35